Temperatura - Umidità - Pioggia orarie dal 15-10-2021 al 23-10-2021

Intensità - Direzione vento orarie dal 15-10-2021 al 23-10-2021

Dati orari da stazione meteo dal 15-10-2021 al 23-10-2021

Nome Stazione Data Ora Temperatura [°C] Umidità [%] Pioggia [mm] Intensità vento[km/h] Direzione vento [°]
Savigliano 15-10-2021 02:00 5.1 84.9 0 0 284
Savigliano 15-10-2021 03:00 4.5 88.6 0 0 238
Savigliano 15-10-2021 04:00 4.3 89.4 0 0 232
Savigliano 15-10-2021 05:00 4.4 89.6 0 0 229
Savigliano 15-10-2021 06:00 4.7 90.2 0 0 229
Savigliano 15-10-2021 07:00 4.6 90.6 0 0 226
Savigliano 15-10-2021 08:00 4.6 90.9 0 0 220
Savigliano 15-10-2021 09:00 5.9 90.3 0 0 218
Savigliano 15-10-2021 10:00 7.2 86.4 0 0 221
Savigliano 15-10-2021 11:00 9.5 84.4 0 0 275
Savigliano 15-10-2021 12:00 9.8 79.7 0 0 280
Savigliano 15-10-2021 13:00 12 75.3 0 0 295
Savigliano 15-10-2021 14:00 13.2 65.4 0 0 125
Savigliano 15-10-2021 15:00 14.8 59.3 0 0 229
Savigliano 15-10-2021 16:00 14.7 58.7 0 0 64
Savigliano 15-10-2021 17:00 14.7 56.9 0 0 84
Savigliano 15-10-2021 18:00 14.3 57.4 0 0 183
Savigliano 15-10-2021 19:00 12.4 61.7 0 0 161
Savigliano 15-10-2021 20:00 10.8 69.2 0 0 162
Savigliano 15-10-2021 21:00 9.4 75.3 0 0 163
Savigliano 15-10-2021 22:00 7.6 79.1 0 0 163
Savigliano 15-10-2021 23:00 7.1 83.1 0 0 163
Savigliano 16-10-2021 00:00 7.1 85.6 0 0 166
Savigliano 16-10-2021 01:00 6.9 85.3 0 0 215
Savigliano 16-10-2021 02:00 4.4 84.9 0 0 227
Savigliano 16-10-2021 03:00 4.7 89.3 0 0 215
Savigliano 16-10-2021 04:00 4.1 90.1 0 0 196
Savigliano 16-10-2021 05:00 4 90.5 0 0 173
Savigliano 16-10-2021 06:00 4.2 90.3 0 0 168
Savigliano 16-10-2021 07:00 3.9 90.2 0 0 166
Savigliano 16-10-2021 08:00 3.5 90.1 0 0 167
Savigliano 16-10-2021 09:00 4.4 89.1 0 0 196
Savigliano 16-10-2021 10:00 8.3 83 0 0 249
Savigliano 16-10-2021 11:00 12.1 69.8 0 0 254
Savigliano 16-10-2021 12:00 12.4 66.7 0 0 91
Savigliano 16-10-2021 13:00 14.8 60.3 0 0 94
Savigliano 16-10-2021 14:00 15.2 56.2 0 0 88
Savigliano 16-10-2021 15:00 17.4 52.8 0 0 122
Savigliano 16-10-2021 16:00 17.2 52 0 0 172
Savigliano 16-10-2021 17:00 17.4 48.5 0 0 197
Savigliano 16-10-2021 18:00 17.2 52.8 0 0 188
Savigliano 16-10-2021 19:00 15 58.5 0 0 137
Savigliano 16-10-2021 20:00 12.2 64.3 0 0 37
Savigliano 16-10-2021 21:00 10.8 68.4 0 0 156
Savigliano 16-10-2021 22:00 10.1 71.4 0 0 306
Savigliano 16-10-2021 23:00 10 78.1 0 0 281
Savigliano 17-10-2021 00:00 8.1 79.4 0 0 238
Savigliano 17-10-2021 01:00 6.9 84.8 0 0 209
Savigliano 17-10-2021 02:00 6.5 84.6 0 0 176
Savigliano 17-10-2021 03:00 4.5 84.7 0 0 171
Savigliano 17-10-2021 04:00 4.1 88.9 0 0 169
Savigliano 17-10-2021 05:00 4.5 89.8 0 0 169
Savigliano 17-10-2021 06:00 4.8 90.4 0 0 168
Savigliano 17-10-2021 07:00 4.7 90.8 0 0 167
Savigliano 17-10-2021 08:00 4.4 90.8 0 0 167
Savigliano 17-10-2021 09:00 4.6 91.1 0 0 167
Savigliano 17-10-2021 10:00 8.4 85.3 0 0 165
Savigliano 17-10-2021 11:00 12.4 71.8 0 0 153
Savigliano 17-10-2021 12:00 14.7 62.8 0 0 79
Savigliano 17-10-2021 13:00 14.9 59 0 0 93
Savigliano 17-10-2021 14:00 15.2 53.6 0 0 91
Savigliano 17-10-2021 15:00 17.3 52 0 0 105
Savigliano 17-10-2021 16:00 17.8 44.8 0 0 156
Savigliano 17-10-2021 17:00 17.1 44.3 0 0 54
Savigliano 17-10-2021 18:00 17.2 50.3 0 0 118
Savigliano 17-10-2021 19:00 15.2 53.4 0 0 110
Savigliano 17-10-2021 20:00 12.9 62.5 0 0 41
Savigliano 17-10-2021 21:00 11.9 70.1 0 0 41
Savigliano 17-10-2021 22:00 10.1 73.8 0 0 256
Savigliano 17-10-2021 23:00 8.4 79.4 0 0 205
Savigliano 18-10-2021 00:00 7 83.4 0 0 203
Savigliano 18-10-2021 01:00 6.3 84.6 0 0 186
Savigliano 18-10-2021 02:00 4.8 85.3 0 0 169
Savigliano 18-10-2021 03:00 4.9 88.5 0 0 169
Savigliano 18-10-2021 04:00 4.7 89.2 0 0 168
Savigliano 18-10-2021 05:00 4.2 89.7 0 0 163
Savigliano 18-10-2021 06:00 4.2 90.3 0 0 165
Savigliano 18-10-2021 07:00 4.9 90.7 0 0 166
Savigliano 18-10-2021 08:00 4.8 91 0 0 167
Savigliano 18-10-2021 09:00 4.8 91.1 0 0 164
Savigliano 18-10-2021 10:00 8.2 86 0 0 160
Savigliano 18-10-2021 11:00 12.3 75.6 0 0 150
Savigliano 18-10-2021 12:00 14.4 66.5 0 0 84
Savigliano 18-10-2021 13:00 15.9 58.7 0 0 106
Savigliano 18-10-2021 14:00 17.7 52.8 0 0 89
Savigliano 18-10-2021 15:00 19.5 46.7 0 0 124
Savigliano 18-10-2021 16:00 19.9 44.2 0 0 123
Savigliano 18-10-2021 17:00 20.1 45 0 0 91
Savigliano 18-10-2021 18:00 18.9 45.7 0 0 94
Savigliano 18-10-2021 19:00 15.7 56.3 0 0 24
Savigliano 18-10-2021 20:00 13.8 65.7 0 0 24
Savigliano 18-10-2021 21:00 12.1 69 0 0 76
Savigliano 18-10-2021 22:00 12.1 73.4 0 0 227
Savigliano 18-10-2021 23:00 11 78.7 0 0 229
Savigliano 19-10-2021 00:00 9.4 78.6 0 0 230
Savigliano 19-10-2021 01:00 8.3 81.6 0 0 230
Savigliano 19-10-2021 02:00 7.2 85 0 0 210
Savigliano 19-10-2021 03:00 6.7 86.4 0 0 194
Savigliano 19-10-2021 04:00 6.1 89.5 0 0 172
Savigliano 19-10-2021 05:00 4.7 89.2 0 0 172
Savigliano 19-10-2021 06:00 4.3 89.1 0 0 172
Savigliano 19-10-2021 07:00 4.3 89.4 0 0 165
Savigliano 19-10-2021 08:00 4.1 89.5 0 0 169
Savigliano 19-10-2021 09:00 4.3 89.4 0 0 168
Savigliano 19-10-2021 10:00 7.6 86.2 0 0 164
Savigliano 19-10-2021 11:00 11.5 77.1 0 0 159
Savigliano 19-10-2021 12:00 13.5 69.2 0 0 124
Savigliano 19-10-2021 13:00 15 66.6 0 0 102
Savigliano 19-10-2021 14:00 16.5 60.6 0 0 115
Savigliano 19-10-2021 15:00 17.4 59.1 0 0 84
Savigliano 19-10-2021 16:00 17.4 52.8 0 0 65
Savigliano 19-10-2021 17:00 17.8 53.4 0 0 45
Savigliano 19-10-2021 18:00 17.3 56.1 0 0 114
Savigliano 19-10-2021 19:00 15.6 64.5 0 0 119
Savigliano 19-10-2021 20:00 13.7 69.9 0 0 16
Savigliano 19-10-2021 21:00 12.2 73.7 0 0 244
Savigliano 19-10-2021 22:00 12.2 77.5 0 0 271
Savigliano 19-10-2021 23:00 10.3 79.7 0 0 240
Savigliano 20-10-2021 00:00 8.7 83.5 0 0 254
Savigliano 20-10-2021 01:00 6.8 85.2 0 0 199
Savigliano 20-10-2021 02:00 7.1 88.1 0 0 168
Savigliano 20-10-2021 03:00 7.3 90.4 0 0 168
Savigliano 20-10-2021 04:00 7.2 90.8 0 0 186
Savigliano 20-10-2021 05:00 6.3 91 0 0 186
Savigliano 20-10-2021 06:00 4.7 91 0 0 186
Savigliano 20-10-2021 07:00 5.5 89.2 0 0 186
Savigliano 20-10-2021 08:00 6 89.4 0 0 181
Savigliano 20-10-2021 09:00 6.7 89.8 0 0 179
Savigliano 20-10-2021 10:00 7.9 91.4 0 0 183
Savigliano 20-10-2021 11:00 10.8 84.9 0 0 192
Savigliano 20-10-2021 12:00 12.5 80.8 0 0 231
Savigliano 20-10-2021 13:00 12.4 77.6 0 0 268
Savigliano 20-10-2021 14:00 14.3 71.8 0 0 267
Savigliano 20-10-2021 15:00 15.4 68.1 0 0 276
Savigliano 20-10-2021 16:00 16.6 67.9 0 0 261
Savigliano 20-10-2021 17:00 15 70.6 0 0 300
Savigliano 20-10-2021 18:00 14.5 73.6 0 0 268
Savigliano 20-10-2021 19:00 14.7 73.8 0 0 286
Savigliano 20-10-2021 20:00 12.8 76.8 0 0 278
Savigliano 20-10-2021 21:00 12.3 80.3 0 0 277
Savigliano 20-10-2021 22:00 12 79.8 0 0 239
Savigliano 20-10-2021 23:00 11.2 80.4 0 0 199
Savigliano 21-10-2021 00:00 9.1 85.2 0 0 166
Savigliano 21-10-2021 01:00 9.1 85.5 0 0 210
Savigliano 21-10-2021 02:00 9.4 86.5 0 0 195
Savigliano 21-10-2021 03:00 9.9 85 0 0 146
Savigliano 21-10-2021 04:00 9.9 85.1 0 0 186
Savigliano 21-10-2021 05:00 9.4 85.6 0 0 189
Savigliano 21-10-2021 06:00 7.4 88.4 0 0 132
Savigliano 21-10-2021 07:00 6.8 91.2 0 0 63
Savigliano 21-10-2021 08:00 7 90.3 0 0 162
Savigliano 21-10-2021 09:00 7.1 90.1 0 0 160
Savigliano 21-10-2021 10:00 7.9 90.4 0 0 173
Savigliano 21-10-2021 11:00 11.3 86.7 0 0 165
Savigliano 21-10-2021 12:00 12.7 78.8 0 0 111
Savigliano 21-10-2021 13:00 14.7 75 0 0 161
Savigliano 21-10-2021 14:00 14.8 74.3 0 0 126
Savigliano 21-10-2021 15:00 14.9 73.6 0 0 87
Savigliano 21-10-2021 16:00 17.1 67.4 0 0 248
Savigliano 21-10-2021 17:00 15.6 66.5 0 0 100
Savigliano 21-10-2021 18:00 14.5 73.1 0 0 128
Savigliano 21-10-2021 19:00 14.3 77.5 0 0 64
Savigliano 21-10-2021 20:00 12.2 81.6 0 0 82
Savigliano 21-10-2021 21:00 12.3 86.4 0 0 95
Savigliano 21-10-2021 22:00 12.1 85.6 0 0 133
Savigliano 21-10-2021 23:00 12 86.5 0 0 177
Savigliano 22-10-2021 00:00 10.5 86.2 0 0 165
Savigliano 22-10-2021 01:00 9.4 88 0 0 164
Savigliano 22-10-2021 02:00 8.6 90.9 0 0 166
Savigliano 22-10-2021 03:00 7.2 91.3 0 0 166
Savigliano 22-10-2021 04:00 6.8 89.8 0 0 166
Savigliano 22-10-2021 05:00 7.3 90.5 0 0 177
Savigliano 22-10-2021 06:00 7 90.4 0 0 211
Savigliano 22-10-2021 07:00 7.1 90.4 0 0 178
Savigliano 15-10-2021 02:20 0 0 0 0 118
Savigliano 15-10-2021 10:40 0 0 0 0 230
Savigliano 16-10-2021 02:20 0 0 0 0 179
Savigliano 16-10-2021 10:40 0 0 0 0 195
Savigliano 17-10-2021 02:20 0 0 0 0 192
Savigliano 17-10-2021 10:40 0 0 0 0 167
Savigliano 18-10-2021 02:20 0 0 0 0 152
Savigliano 18-10-2021 10:40 0 0 0 0 165
Savigliano 19-10-2021 02:20 0 0 0 0 158
Savigliano 19-10-2021 10:40 0 0 0 0 170
Savigliano 20-10-2021 02:20 0 0 0 0 188
Savigliano 20-10-2021 10:40 0 0 0 0 183
Savigliano 21-10-2021 02:20 0 0 0 0 228
Savigliano 21-10-2021 10:40 0 0 0 0 154
Savigliano 22-10-2021 02:20 0 0 0 0 132

Riassuntivo giornaliero del 22-10-2021